createdAt,value
2022-08-05T00:02:15.108Z,15.81
2022-08-05T00:18:07.610Z,15.62
2022-08-05T00:21:59.823Z,15.60
2022-08-05T00:25:52.777Z,15.56
2022-08-05T00:29:46.842Z,15.53
2022-08-05T00:49:22.651Z,15.43
2022-08-05T00:54:01.004Z,15.37
2022-08-05T00:57:38.184Z,15.31
2022-08-05T01:17:30.924Z,15.14
2022-08-05T01:21:40.719Z,15.08
2022-08-05T01:25:52.363Z,15.04
2022-08-05T01:29:25.009Z,14.99
2022-08-05T01:33:19.635Z,15.14
2022-08-05T01:41:08.975Z,15.20
2022-08-05T01:45:03.251Z,15.09
2022-08-05T01:48:54.959Z,15.03
2022-08-05T02:00:54.020Z,15.02
2022-08-05T02:04:49.501Z,14.93
2022-08-05T02:08:44.826Z,14.91
2022-08-05T02:13:02.618Z,14.86
2022-08-05T02:16:37.978Z,14.80
2022-08-05T02:20:38.965Z,14.75
2022-08-05T02:40:16.833Z,14.59
2022-08-05T02:44:12.266Z,14.45
2022-08-05T02:48:06.860Z,14.31
2022-08-05T02:52:07.600Z,14.16
2022-08-05T03:11:55.509Z,14.18
2022-08-05T03:15:52.407Z,14.14
2022-08-05T03:31:57.151Z,14.04
2022-08-05T03:35:44.384Z,13.98
2022-08-05T03:39:57.794Z,13.97
2022-08-05T03:52:37.444Z,14.05
2022-08-05T03:56:18.089Z,14.04
2022-08-05T04:00:22.931Z,14.05
2022-08-05T04:24:04.716Z,14.18
2022-08-05T04:27:57.363Z,14.25
2022-08-05T04:31:53.920Z,14.36
2022-08-05T04:47:22.207Z,14.95
2022-08-05T04:51:15.124Z,15.05
2022-08-05T04:55:14.423Z,15.16
2022-08-05T04:59:23.877Z,15.31
2022-08-05T05:19:19.042Z,16.44
2022-08-05T05:23:19.841Z,16.68
2022-08-05T05:27:14.445Z,16.93
2022-08-05T05:46:40.420Z,18.13
2022-08-05T05:50:41.292Z,18.39
2022-08-05T05:54:50.363Z,18.61
2022-08-05T06:21:24.151Z,20.32
2022-08-05T06:25:25.339Z,20.54
2022-08-05T06:28:54.637Z,20.82
2022-08-05T06:32:24.903Z,21.11
2022-08-05T06:36:04.022Z,21.38
2022-08-05T06:59:30.563Z,23.40
2022-08-05T07:02:32.341Z,23.65
2022-08-05T07:05:41.154Z,23.93
2022-08-05T07:08:21.136Z,24.24
2022-08-05T07:11:17.376Z,24.48
2022-08-05T07:14:20.598Z,24.70
2022-08-05T07:17:58.332Z,24.97
2022-08-05T07:20:32.822Z,25.25
2022-08-05T07:23:29.707Z,25.54
2022-08-05T07:26:35.226Z,25.78
2022-08-05T07:30:24.160Z,26.03
2022-08-05T07:32:40.519Z,26.28
2022-08-05T07:36:04.000Z,26.47
2022-08-05T07:38:33.471Z,26.75
2022-08-05T07:42:07.277Z,26.96
2022-08-05T07:44:19.210Z,27.16
2022-08-05T07:46:52.474Z,27.35
2022-08-05T07:49:24.133Z,27.52
2022-08-05T07:51:56.162Z,27.65
2022-08-05T07:54:31.227Z,27.85
2022-08-05T07:57:41.834Z,28.06
2022-08-05T08:00:28.271Z,28.29
2022-08-05T08:03:15.109Z,28.39
2022-08-05T08:05:49.570Z,28.60
2022-08-05T08:08:20.565Z,28.77
2022-08-05T08:10:51.071Z,28.92
2022-08-05T08:13:29.434Z,29.16
2022-08-05T08:16:49.818Z,29.47
2022-08-05T08:18:56.852Z,29.78
2022-08-05T08:21:27.946Z,29.94
2022-08-05T08:24:02.891Z,30.11
2022-08-05T08:26:37.268Z,30.29
2022-08-05T08:29:45.373Z,30.47
2022-08-05T08:32:07.895Z,30.66
2022-08-05T08:34:45.821Z,30.81
2022-08-05T08:37:18.835Z,31.02
2022-08-05T08:39:52.723Z,31.16
2022-08-05T08:42:34.298Z,31.42
2022-08-05T08:45:26.247Z,31.68
2022-08-05T08:48:12.485Z,31.63
2022-08-05T08:51:22.447Z,31.68
2022-08-05T08:53:45.070Z,31.91
2022-08-05T08:56:18.116Z,32.08
2022-08-05T08:58:48.806Z,32.16
2022-08-05T09:01:20.670Z,32.27
2022-08-05T09:03:55.712Z,32.48
2022-08-05T09:06:36.233Z,32.65
2022-08-05T09:09:06.789Z,32.86
2022-08-05T09:11:51.911Z,32.95
2022-08-05T09:14:56.817Z,32.92
2022-08-05T09:17:40.698Z,33.02
2022-08-05T09:20:08.623Z,33.22
2022-08-05T09:23:19.093Z,33.42
2022-08-05T09:26:01.420Z,33.70
2022-08-05T09:28:36.687Z,33.88
2022-08-05T09:31:43.666Z,33.95
2022-08-05T09:34:11.801Z,34.12
2022-08-05T09:36:55.715Z,34.17
2022-08-05T09:39:45.225Z,34.24
2022-08-05T09:42:28.450Z,34.30
2022-08-05T09:46:04.981Z,34.41
2022-08-05T09:48:00.137Z,34.37
2022-08-05T09:50:44.704Z,34.30
2022-08-05T09:53:26.069Z,34.43
2022-08-05T09:56:13.261Z,34.63
2022-08-05T09:59:05.194Z,34.81
2022-08-05T10:01:39.675Z,34.99
2022-08-05T10:04:16.087Z,35.24
2022-08-05T10:06:59.448Z,35.38
2022-08-05T10:09:30.274Z,35.38
2022-08-05T10:12:30.785Z,35.33
2022-08-05T10:15:26.179Z,35.29
2022-08-05T10:18:09.354Z,35.17
2022-08-05T10:20:50.838Z,35.13
2022-08-05T10:23:55.609Z,35.08
2022-08-05T10:26:18.965Z,34.97
2022-08-05T10:28:56.396Z,34.78
2022-08-05T10:33:00.860Z,34.80
2022-08-05T10:34:20.003Z,35.01
2022-08-05T10:36:57.434Z,35.13
2022-08-05T10:39:59.289Z,35.14
2022-08-05T10:42:33.892Z,35.21
2022-08-05T10:45:21.589Z,35.37
2022-08-05T10:48:29.147Z,35.52
2022-08-05T10:51:21.836Z,35.68
2022-08-05T10:53:52.176Z,35.89
2022-08-05T10:56:31.659Z,35.85
2022-08-05T10:59:12.727Z,35.81
2022-08-05T11:02:14.554Z,35.77
2022-08-05T11:05:10.468Z,35.95
2022-08-05T11:08:36.707Z,36.10
2022-08-05T11:11:44.629Z,35.97
2022-08-05T11:15:00.945Z,36.17
2022-08-05T11:17:59.689Z,36.47
2022-08-05T11:20:46.474Z,36.77
2022-08-05T11:24:05.751Z,36.90
2022-08-05T11:26:32.977Z,36.99
2022-08-05T11:29:12.880Z,36.97
2022-08-05T11:31:54.469Z,37.02
2022-08-05T11:34:51.102Z,37.19
2022-08-05T11:38:37.005Z,37.36
2022-08-05T11:41:35.510Z,37.36
2022-08-05T11:44:08.114Z,37.51
2022-08-05T11:46:58.647Z,37.67
2022-08-05T11:49:42.908Z,37.84
2022-08-05T11:52:13.621Z,37.99
2022-08-05T11:54:48.514Z,38.01
2022-08-05T11:57:30.608Z,38.11
2022-08-05T12:00:30.411Z,38.28
2022-08-05T12:03:31.687Z,38.43
2022-08-05T12:06:06.447Z,38.42
2022-08-05T12:08:51.284Z,38.40
2022-08-05T12:11:24.422Z,38.43
2022-08-05T12:14:04.050Z,38.35
2022-08-05T12:16:46.363Z,38.44
2022-08-05T12:20:25.724Z,38.42
2022-08-05T12:22:09.715Z,38.20
2022-08-05T12:24:49.565Z,38.07
2022-08-05T12:27:25.232Z,38.11
2022-08-05T12:30:08.900Z,38.15
2022-08-05T12:32:53.705Z,38.21
2022-08-05T12:35:37.136Z,38.29
2022-08-05T12:38:10.950Z,38.44
2022-08-05T12:40:44.213Z,38.51
2022-08-05T12:43:21.081Z,38.62
2022-08-05T12:45:57.196Z,38.65
2022-08-05T12:48:32.541Z,38.61
2022-08-05T12:52:11.158Z,38.59
2022-08-05T12:54:05.000Z,38.50
2022-08-05T12:56:53.061Z,38.31
2022-08-05T12:59:46.714Z,38.16
2022-08-05T13:02:30.676Z,38.22
2022-08-05T13:05:01.178Z,38.21
2022-08-05T13:07:57.410Z,38.24
2022-08-05T13:10:24.699Z,38.13
2022-08-05T13:12:58.456Z,38.26
2022-08-05T13:15:35.932Z,38.37
2022-08-05T13:18:20.347Z,38.35
2022-08-05T13:20:50.980Z,38.36
2022-08-05T13:23:22.577Z,38.32
2022-08-05T13:25:59.394Z,38.37
2022-08-05T13:28:32.297Z,38.39
2022-08-05T13:31:11.094Z,38.46
2022-08-05T13:34:25.027Z,38.41
2022-08-05T13:36:36.423Z,38.35
2022-08-05T13:39:08.343Z,38.36
2022-08-05T13:41:39.108Z,38.24
2022-08-05T13:44:10.129Z,38.23
2022-08-05T13:49:31.613Z,38.58
2022-08-05T13:52:29.173Z,38.57
2022-08-05T13:54:59.662Z,38.64
2022-08-05T13:57:51.011Z,38.75
2022-08-05T14:00:27.358Z,38.70
2022-08-05T14:03:01.149Z,38.79
2022-08-05T14:06:04.876Z,38.71
2022-08-05T14:08:27.650Z,38.74
2022-08-05T14:11:19.822Z,38.68
2022-08-05T14:13:55.014Z,38.62
2022-08-05T14:16:32.329Z,38.62
2022-08-05T14:19:04.623Z,38.54
2022-08-05T14:22:10.107Z,38.47
2022-08-05T14:24:26.245Z,38.44
2022-08-05T14:27:17.542Z,38.55
2022-08-05T14:29:51.343Z,38.66
2022-08-05T14:32:27.704Z,38.81
2022-08-05T14:34:59.193Z,38.89
2022-08-05T14:37:45.288Z,38.82
2022-08-05T14:40:18.148Z,38.63
2022-08-05T14:42:48.842Z,38.62
2022-08-05T14:45:19.087Z,38.58
2022-08-05T14:48:03.916Z,38.50
2022-08-05T14:50:40.810Z,38.34
2022-08-05T14:53:12.750Z,38.28
2022-08-05T14:55:43.596Z,38.31
2022-08-05T14:58:22.327Z,38.42
2022-08-05T15:00:58.932Z,38.40
2022-08-05T15:03:33.979Z,38.24
2022-08-05T15:06:15.403Z,38.01
2022-08-05T15:08:59.170Z,37.99
2022-08-05T15:11:51.732Z,38.02
2022-08-05T15:14:34.887Z,37.96
2022-08-05T15:17:45.030Z,37.86
2022-08-05T15:20:18.282Z,37.88
2022-08-05T15:22:52.172Z,37.79
2022-08-05T15:25:51.169Z,37.71
2022-08-05T15:28:16.230Z,37.56
2022-08-05T15:30:53.102Z,37.41
2022-08-05T15:34:04.614Z,37.19
2022-08-05T15:36:17.185Z,37.02
2022-08-05T15:41:00.213Z,36.88
2022-08-05T15:41:56.034Z,36.78
2022-08-05T15:44:30.159Z,36.71
2022-08-05T15:47:02.059Z,36.66
2022-08-05T15:49:55.124Z,36.61
2022-08-05T15:52:29.383Z,36.53
2022-08-05T15:55:17.970Z,36.43
2022-08-05T15:57:48.989Z,36.21
2022-08-05T16:00:26.064Z,36.04
2022-08-05T16:03:03.685Z,35.94
2022-08-05T16:05:33.602Z,35.82
2022-08-05T16:08:04.984Z,35.74
2022-08-05T16:10:33.832Z,35.70
2022-08-05T16:13:05.986Z,35.66
2022-08-05T16:15:34.644Z,35.52
2022-08-05T16:18:09.158Z,35.48
2022-08-05T16:20:38.610Z,35.45
2022-08-05T16:23:09.400Z,35.34
2022-08-05T16:25:39.659Z,35.24
2022-08-05T16:28:11.249Z,35.16
2022-08-05T16:30:41.674Z,35.07
2022-08-05T16:33:11.973Z,34.92
2022-08-05T16:35:47.764Z,34.81
2022-08-05T16:38:25.084Z,34.72
2022-08-05T16:41:00.460Z,34.59
2022-08-05T16:43:36.035Z,34.47
2022-08-05T16:46:23.584Z,34.36
2022-08-05T16:48:53.661Z,34.26
2022-08-05T16:51:30.677Z,34.17
2022-08-05T16:54:16.005Z,34.07
2022-08-05T16:56:48.127Z,33.97
2022-08-05T16:59:25.024Z,33.89
2022-08-05T17:01:58.376Z,33.81
2022-08-05T17:04:31.777Z,33.73
2022-08-05T17:07:11.361Z,33.63
2022-08-05T17:09:58.460Z,33.51
2022-08-05T17:12:50.338Z,33.30
2022-08-05T17:15:20.939Z,33.09
2022-08-05T17:17:55.174Z,32.93
2022-08-05T17:20:26.595Z,32.76
2022-08-05T17:22:58.711Z,32.59
2022-08-05T17:25:39.588Z,32.39
2022-08-05T17:28:11.459Z,32.16
2022-08-05T17:30:52.206Z,31.94
2022-08-05T17:33:23.280Z,31.71
2022-08-05T17:36:08.754Z,31.39
2022-08-05T17:38:41.595Z,31.00
2022-08-05T17:42:18.235Z,30.72
2022-08-05T17:44:02.931Z,30.35
2022-08-05T17:46:36.686Z,30.17
2022-08-05T17:49:10.205Z,30.08
2022-08-05T17:51:40.815Z,29.95
2022-08-05T17:54:10.937Z,29.77
2022-08-05T17:56:41.298Z,29.55
2022-08-05T17:59:24.574Z,29.36
2022-08-05T18:01:56.149Z,29.16
2022-08-05T18:04:31.010Z,28.94
2022-08-05T18:07:03.706Z,28.62
2022-08-05T18:09:59.817Z,28.24
2022-08-05T18:12:33.638Z,27.82
2022-08-05T18:15:06.999Z,27.56
2022-08-05T18:17:59.269Z,27.38
2022-08-05T18:20:33.671Z,27.09
2022-08-05T18:23:15.105Z,26.89
2022-08-05T18:25:57.550Z,26.74
2022-08-05T18:28:40.318Z,26.60
2022-08-05T18:31:43.703Z,26.45
2022-08-05T18:34:23.769Z,26.22
2022-08-05T18:37:34.696Z,25.96
2022-08-05T18:41:54.319Z,25.65
2022-08-05T18:43:58.759Z,25.42
2022-08-05T18:46:59.935Z,25.18
2022-08-05T18:50:03.463Z,25.00
2022-08-05T18:53:22.200Z,24.75
2022-08-05T18:56:37.984Z,24.63
2022-08-05T18:59:42.967Z,24.52
2022-08-05T19:03:04.968Z,24.35
2022-08-05T19:06:21.542Z,24.22
2022-08-05T19:09:30.088Z,24.07
2022-08-05T19:13:17.356Z,23.94
2022-08-05T19:16:46.801Z,23.76
2022-08-05T19:20:06.198Z,23.62
2022-08-05T19:24:05.273Z,23.46
2022-08-05T19:26:55.982Z,23.26
2022-08-05T19:30:30.029Z,23.05
2022-08-05T19:58:53.808Z,21.94
2022-08-05T20:02:37.290Z,21.75
2022-08-05T20:06:01.664Z,21.63
2022-08-05T20:09:55.050Z,21.51
2022-08-05T20:13:30.032Z,21.38
2022-08-05T20:44:17.781Z,20.53
2022-08-05T20:47:34.572Z,20.35
2022-08-05T20:51:08.293Z,20.20
2022-08-05T20:54:59.866Z,20.09
2022-08-05T20:58:01.544Z,19.97
2022-08-05T21:01:16.686Z,19.87
2022-08-05T21:04:39.926Z,19.76
2022-08-05T21:08:11.056Z,19.69
2022-08-05T21:12:07.186Z,19.60
2022-08-05T21:15:13.469Z,19.49
2022-08-05T21:18:37.111Z,19.41
2022-08-05T21:22:23.514Z,19.21
2022-08-05T21:44:37.227Z,18.83
2022-08-05T21:48:29.226Z,18.72
2022-08-05T21:52:21.759Z,18.64
2022-08-05T22:16:00.852Z,18.11
2022-08-05T22:20:03.575Z,17.96
2022-08-05T22:24:12.939Z,17.90
2022-08-05T22:47:29.185Z,17.72
2022-08-05T22:51:23.073Z,17.59
2022-08-05T22:55:56.407Z,17.51
2022-08-05T23:11:36.195Z,17.42
2022-08-05T23:15:35.282Z,17.35
2022-08-05T23:19:23.979Z,17.27
2022-08-05T23:23:19.056Z,17.18
2022-08-05T23:35:36.858Z,16.97
2022-08-05T23:39:44.394Z,16.93
2022-08-05T23:42:39.308Z,16.91
2022-08-05T23:45:14.396Z,16.93
2022-08-05T23:47:48.048Z,16.92
2022-08-05T23:50:20.197Z,16.91
2022-08-05T23:52:51.227Z,16.89
2022-08-05T23:55:24.717Z,16.86
2022-08-05T23:58:03.743Z,16.83
